sensor_id;sensor_type;location;lat;lon;timestamp;P1;durP1;ratioP1;P2;durP2;ratioP2
1446;SDS011;717;51.522;7.266;2022-10-31T00:02:21;14.18;;;8.80;;
1446;SDS011;717;51.522;7.266;2022-10-31T00:04:49;9.95;;;8.43;;
1446;SDS011;717;51.522;7.266;2022-10-31T00:07:16;14.00;;;8.18;;
1446;SDS011;717;51.522;7.266;2022-10-31T00:09:43;14.00;;;8.10;;
1446;SDS011;717;51.522;7.266;2022-10-31T00:12:09;15.63;;;9.07;;
1446;SDS011;717;51.522;7.266;2022-10-31T00:14:36;11.95;;;8.95;;
1446;SDS011;717;51.522;7.266;2022-10-31T00:17:03;11.70;;;9.00;;
1446;SDS011;717;51.522;7.266;2022-10-31T00:19:29;16.48;;;9.40;;
1446;SDS011;717;51.522;7.266;2022-10-31T00:21:57;14.93;;;9.05;;
1446;SDS011;717;51.522;7.266;2022-10-31T00:24:24;11.52;;;8.90;;
1446;SDS011;717;51.522;7.266;2022-10-31T00:26:51;12.35;;;9.02;;
1446;SDS011;717;51.522;7.266;2022-10-31T00:29:17;14.27;;;9.70;;
1446;SDS011;717;51.522;7.266;2022-10-31T00:31:44;11.82;;;9.10;;
1446;SDS011;717;51.522;7.266;2022-10-31T00:34:11;13.63;;;9.02;;
1446;SDS011;717;51.522;7.266;2022-10-31T00:36:38;15.13;;;9.43;;
1446;SDS011;717;51.522;7.266;2022-10-31T00:39:06;10.55;;;8.43;;
1446;SDS011;717;51.522;7.266;2022-10-31T00:41:32;13.07;;;9.20;;
1446;SDS011;717;51.522;7.266;2022-10-31T00:43:59;11.63;;;8.48;;
1446;SDS011;717;51.522;7.266;2022-10-31T00:46:26;16.13;;;9.02;;
1446;SDS011;717;51.522;7.266;2022-10-31T00:48:53;11.00;;;8.57;;
1446;SDS011;717;51.522;7.266;2022-10-31T00:51:19;13.73;;;8.45;;
1446;SDS011;717;51.522;7.266;2022-10-31T00:53:46;13.43;;;9.18;;
1446;SDS011;717;51.522;7.266;2022-10-31T00:56:14;14.38;;;8.32;;
1446;SDS011;717;51.522;7.266;2022-10-31T00:58:41;13.10;;;8.82;;
1446;SDS011;717;51.522;7.266;2022-10-31T01:01:08;11.90;;;8.50;;
1446;SDS011;717;51.522;7.266;2022-10-31T01:03:34;14.68;;;9.43;;
1446;SDS011;717;51.522;7.266;2022-10-31T01:06:04;13.32;;;8.43;;
1446;SDS011;717;51.522;7.266;2022-10-31T01:08:32;12.50;;;8.23;;
1446;SDS011;717;51.522;7.266;2022-10-31T01:11:00;14.30;;;8.45;;
1446;SDS011;717;51.522;7.266;2022-10-31T01:13:30;12.35;;;8.45;;
1446;SDS011;717;51.522;7.266;2022-10-31T01:15:57;11.90;;;7.82;;
1446;SDS011;717;51.522;7.266;2022-10-31T01:18:25;14.35;;;8.48;;
1446;SDS011;717;51.522;7.266;2022-10-31T01:20:59;13.98;;;8.43;;
1446;SDS011;717;51.522;7.266;2022-10-31T01:23:27;9.95;;;7.75;;
1446;SDS011;717;51.522;7.266;2022-10-31T01:25:59;12.50;;;8.05;;
1446;SDS011;717;51.522;7.266;2022-10-31T01:28:26;13.25;;;8.02;;
1446;SDS011;717;51.522;7.266;2022-10-31T01:30:54;11.00;;;7.68;;
1446;SDS011;717;51.522;7.266;2022-10-31T01:33:21;8.90;;;7.82;;
1446;SDS011;717;51.522;7.266;2022-10-31T01:35:48;11.00;;;8.23;;
1446;SDS011;717;51.522;7.266;2022-10-31T01:38:14;12.50;;;8.13;;
1446;SDS011;717;51.522;7.266;2022-10-31T01:40:41;11.27;;;8.13;;
1446;SDS011;717;51.522;7.266;2022-10-31T01:43:09;13.65;;;8.43;;
1446;SDS011;717;51.522;7.266;2022-10-31T01:45:39;13.38;;;8.32;;
1446;SDS011;717;51.522;7.266;2022-10-31T01:48:08;13.32;;;8.25;;
1446;SDS011;717;51.522;7.266;2022-10-31T01:50:39;12.55;;;8.68;;
1446;SDS011;717;51.522;7.266;2022-10-31T01:53:07;13.10;;;7.38;;
1446;SDS011;717;51.522;7.266;2022-10-31T01:55:35;12.57;;;7.38;;
1446;SDS011;717;51.522;7.266;2022-10-31T01:58:07;15.13;;;7.88;;
1446;SDS011;717;51.522;7.266;2022-10-31T02:00:37;12.20;;;8.25;;
1446;SDS011;717;51.522;7.266;2022-10-31T02:03:05;14.05;;;8.55;;
1446;SDS011;717;51.522;7.266;2022-10-31T02:05:33;11.85;;;8.50;;
1446;SDS011;717;51.522;7.266;2022-10-31T02:08:01;11.45;;;8.90;;
1446;SDS011;717;51.522;7.266;2022-10-31T02:10:32;11.50;;;8.50;;
1446;SDS011;717;51.522;7.266;2022-10-31T02:13:02;13.77;;;8.43;;
1446;SDS011;717;51.522;7.266;2022-10-31T02:15:30;12.00;;;8.82;;
1446;SDS011;717;51.522;7.266;2022-10-31T02:17:58;12.60;;;8.07;;
1446;SDS011;717;51.522;7.266;2022-10-31T02:20:27;13.88;;;9.18;;
1446;SDS011;717;51.522;7.266;2022-10-31T02:23:09;14.35;;;8.63;;
1446;SDS011;717;51.522;7.266;2022-10-31T02:26:01;10.02;;;8.10;;
1446;SDS011;717;51.522;7.266;2022-10-31T02:31:49;14.15;;;8.82;;
1446;SDS011;717;51.522;7.266;2022-10-31T02:34:21;11.73;;;7.88;;
1446;SDS011;717;51.522;7.266;2022-10-31T02:36:54;16.08;;;8.18;;
1446;SDS011;717;51.522;7.266;2022-10-31T02:39:26;13.13;;;7.97;;
1446;SDS011;717;51.522;7.266;2022-10-31T02:42:01;13.02;;;8.73;;
1446;SDS011;717;51.522;7.266;2022-10-31T02:44:33;11.00;;;7.20;;
1446;SDS011;717;51.522;7.266;2022-10-31T02:47:05;14.68;;;8.15;;
1446;SDS011;717;51.522;7.266;2022-10-31T02:49:37;10.77;;;7.57;;
1446;SDS011;717;51.522;7.266;2022-10-31T02:52:13;11.75;;;7.78;;
1446;SDS011;717;51.522;7.266;2022-10-31T02:54:42;10.65;;;7.43;;
1446;SDS011;717;51.522;7.266;2022-10-31T02:57:11;10.20;;;7.28;;
1446;SDS011;717;51.522;7.266;2022-10-31T02:59:41;10.10;;;7.13;;
1446;SDS011;717;51.522;7.266;2022-10-31T03:02:17;12.27;;;6.57;;
1446;SDS011;717;51.522;7.266;2022-10-31T03:05:21;13.48;;;6.97;;
1446;SDS011;717;51.522;7.266;2022-10-31T03:07:57;13.77;;;7.03;;
1446;SDS011;717;51.522;7.266;2022-10-31T03:10:31;8.88;;;6.93;;
1446;SDS011;717;51.522;7.266;2022-10-31T03:13:06;11.10;;;6.70;;
1446;SDS011;717;51.522;7.266;2022-10-31T03:15:37;10.15;;;6.53;;
1446;SDS011;717;51.522;7.266;2022-10-31T03:18:11;11.57;;;6.60;;
1446;SDS011;717;51.522;7.266;2022-10-31T03:20:45;13.30;;;7.10;;
1446;SDS011;717;51.522;7.266;2022-10-31T03:23:16;9.80;;;6.57;;
1446;SDS011;717;51.522;7.266;2022-10-31T03:25:45;10.65;;;7.00;;
1446;SDS011;717;51.522;7.266;2022-10-31T03:28:13;9.35;;;7.13;;
1446;SDS011;717;51.522;7.266;2022-10-31T03:30:43;12.23;;;6.85;;
1446;SDS011;717;51.522;7.266;2022-10-31T03:33:14;9.63;;;6.78;;
1446;SDS011;717;51.522;7.266;2022-10-31T03:35:46;11.73;;;7.00;;
1446;SDS011;717;51.522;7.266;2022-10-31T03:38:14;10.93;;;6.72;;
1446;SDS011;717;51.522;7.266;2022-10-31T03:40:42;8.63;;;6.60;;
1446;SDS011;717;51.522;7.266;2022-10-31T03:43:12;10.13;;;6.70;;
1446;SDS011;717;51.522;7.266;2022-10-31T03:45:43;13.02;;;6.90;;
1446;SDS011;717;51.522;7.266;2022-10-31T03:48:11;11.88;;;7.38;;
1446;SDS011;717;51.522;7.266;2022-10-31T03:50:42;9.05;;;6.68;;
1446;SDS011;717;51.522;7.266;2022-10-31T03:53:16;13.20;;;7.22;;
1446;SDS011;717;51.522;7.266;2022-10-31T03:55:48;10.02;;;7.75;;
1446;SDS011;717;51.522;7.266;2022-10-31T03:58:19;10.73;;;7.30;;
1446;SDS011;717;51.522;7.266;2022-10-31T04:00:50;10.90;;;7.30;;
1446;SDS011;717;51.522;7.266;2022-10-31T04:03:21;11.10;;;7.60;;
1446;SDS011;717;51.522;7.266;2022-10-31T04:05:51;14.10;;;8.10;;
1446;SDS011;717;51.522;7.266;2022-10-31T04:08:22;14.43;;;7.95;;
1446;SDS011;717;51.522;7.266;2022-10-31T04:10:54;12.48;;;7.82;;
1446;SDS011;717;51.522;7.266;2022-10-31T04:13:24;9.75;;;7.50;;
1446;SDS011;717;51.522;7.266;2022-10-31T04:15:53;11.15;;;7.50;;
1446;SDS011;717;51.522;7.266;2022-10-31T04:18:23;9.88;;;7.43;;
1446;SDS011;717;51.522;7.266;2022-10-31T04:20:58;13.50;;;7.35;;
1446;SDS011;717;51.522;7.266;2022-10-31T04:23:26;13.25;;;8.20;;
1446;SDS011;717;51.522;7.266;2022-10-31T04:25:53;11.35;;;7.80;;
1446;SDS011;717;51.522;7.266;2022-10-31T04:28:19;14.35;;;7.45;;
1446;SDS011;717;51.522;7.266;2022-10-31T04:30:46;10.30;;;7.45;;
1446;SDS011;717;51.522;7.266;2022-10-31T04:33:13;16.25;;;7.18;;
1446;SDS011;717;51.522;7.266;2022-10-31T04:35:41;13.07;;;7.47;;
1446;SDS011;717;51.522;7.266;2022-10-31T04:38:08;11.48;;;7.70;;
1446;SDS011;717;51.522;7.266;2022-10-31T04:40:34;11.45;;;6.95;;
1446;SDS011;717;51.522;7.266;2022-10-31T04:43:01;13.95;;;7.20;;
1446;SDS011;717;51.522;7.266;2022-10-31T04:45:28;11.70;;;7.72;;
1446;SDS011;717;51.522;7.266;2022-10-31T04:47:54;9.95;;;7.20;;
1446;SDS011;717;51.522;7.266;2022-10-31T04:50:21;15.27;;;8.18;;
1446;SDS011;717;51.522;7.266;2022-10-31T04:52:49;11.18;;;8.10;;
1446;SDS011;717;51.522;7.266;2022-10-31T04:55:16;11.80;;;7.60;;
1446;SDS011;717;51.522;7.266;2022-10-31T04:57:43;12.10;;;8.20;;
1446;SDS011;717;51.522;7.266;2022-10-31T05:00:11;11.65;;;8.35;;
1446;SDS011;717;51.522;7.266;2022-10-31T05:02:43;13.63;;;8.40;;
1446;SDS011;717;51.522;7.266;2022-10-31T05:05:10;14.50;;;9.18;;
1446;SDS011;717;51.522;7.266;2022-10-31T05:07:38;10.85;;;8.07;;
1446;SDS011;717;51.522;7.266;2022-10-31T05:10:08;10.15;;;7.75;;
1446;SDS011;717;51.522;7.266;2022-10-31T05:12:35;12.18;;;8.38;;
1446;SDS011;717;51.522;7.266;2022-10-31T05:15:02;12.10;;;8.18;;
1446;SDS011;717;51.522;7.266;2022-10-31T05:17:30;12.75;;;8.73;;
1446;SDS011;717;51.522;7.266;2022-10-31T05:19:56;10.93;;;7.93;;
1446;SDS011;717;51.522;7.266;2022-10-31T05:22:23;13.00;;;7.82;;
1446;SDS011;717;51.522;7.266;2022-10-31T05:24:50;12.23;;;7.75;;
1446;SDS011;717;51.522;7.266;2022-10-31T05:27:18;11.25;;;8.23;;
1446;SDS011;717;51.522;7.266;2022-10-31T05:29:44;12.52;;;7.88;;
1446;SDS011;717;51.522;7.266;2022-10-31T05:32:10;10.60;;;7.90;;
1446;SDS011;717;51.522;7.266;2022-10-31T05:34:37;12.30;;;7.78;;
1446;SDS011;717;51.522;7.266;2022-10-31T05:37:04;13.43;;;8.23;;
1446;SDS011;717;51.522;7.266;2022-10-31T05:39:30;11.70;;;7.95;;
1446;SDS011;717;51.522;7.266;2022-10-31T05:41:57;10.70;;;7.90;;
1446;SDS011;717;51.522;7.266;2022-10-31T05:44:25;12.20;;;8.20;;
1446;SDS011;717;51.522;7.266;2022-10-31T05:46:52;12.30;;;8.43;;
1446;SDS011;717;51.522;7.266;2022-10-31T07:28:13;10.05;;;8.48;;
1446;SDS011;717;51.522;7.266;2022-10-31T07:30:39;12.68;;;9.35;;
1446;SDS011;717;51.522;7.266;2022-10-31T07:33:06;15.23;;;9.55;;
1446;SDS011;717;51.522;7.266;2022-10-31T07:35:33;15.52;;;9.45;;
1446;SDS011;717;51.522;7.266;2022-10-31T07:38:06;16.88;;;9.98;;
1446;SDS011;717;51.522;7.266;2022-10-31T07:40:34;14.55;;;10.35;;
1446;SDS011;717;51.522;7.266;2022-10-31T07:43:01;14.52;;;10.20;;
1446;SDS011;717;51.522;7.266;2022-10-31T07:45:29;17.42;;;10.55;;
1446;SDS011;717;51.522;7.266;2022-10-31T07:47:56;15.45;;;10.23;;
1446;SDS011;717;51.522;7.266;2022-10-31T07:50:23;15.60;;;11.18;;
1446;SDS011;717;51.522;7.266;2022-10-31T07:52:58;15.32;;;10.43;;
1446;SDS011;717;51.522;7.266;2022-10-31T07:55:25;13.52;;;10.75;;
1446;SDS011;717;51.522;7.266;2022-10-31T07:57:56;15.27;;;11.02;;
1446;SDS011;717;51.522;7.266;2022-10-31T08:00:24;17.17;;;12.20;;
1446;SDS011;717;51.522;7.266;2022-10-31T08:02:57;16.95;;;12.13;;
1446;SDS011;717;51.522;7.266;2022-10-31T08:05:24;18.42;;;12.25;;
1446;SDS011;717;51.522;7.266;2022-10-31T08:07:51;18.17;;;13.10;;
1446;SDS011;717;51.522;7.266;2022-10-31T08:10:18;18.65;;;12.73;;
1446;SDS011;717;51.522;7.266;2022-10-31T08:12:47;18.15;;;12.50;;
1446;SDS011;717;51.522;7.266;2022-10-31T08:15:21;21.35;;;13.98;;
1446;SDS011;717;51.522;7.266;2022-10-31T08:17:48;17.02;;;12.27;;
1446;SDS011;717;51.522;7.266;2022-10-31T08:20:16;20.60;;;13.18;;
1446;SDS011;717;51.522;7.266;2022-10-31T08:22:42;19.15;;;12.57;;
1446;SDS011;717;51.522;7.266;2022-10-31T08:25:17;18.95;;;12.80;;
1446;SDS011;717;51.522;7.266;2022-10-31T08:27:47;18.92;;;12.05;;
1446;SDS011;717;51.522;7.266;2022-10-31T08:30:15;19.65;;;13.50;;
1446;SDS011;717;51.522;7.266;2022-10-31T08:32:41;19.27;;;13.15;;
1446;SDS011;717;51.522;7.266;2022-10-31T08:35:08;23.58;;;12.57;;
1446;SDS011;717;51.522;7.266;2022-10-31T08:37:36;16.33;;;12.45;;
1446;SDS011;717;51.522;7.266;2022-10-31T08:40:03;19.30;;;13.18;;
1446;SDS011;717;51.522;7.266;2022-10-31T08:42:32;22.35;;;13.23;;
1446;SDS011;717;51.522;7.266;2022-10-31T08:44:59;17.60;;;12.90;;
1446;SDS011;717;51.522;7.266;2022-10-31T08:47:25;19.67;;;12.73;;
1446;SDS011;717;51.522;7.266;2022-10-31T08:49:52;18.83;;;13.57;;
1446;SDS011;717;51.522;7.266;2022-10-31T08:52:22;17.17;;;12.57;;
1446;SDS011;717;51.522;7.266;2022-10-31T08:54:50;23.70;;;12.63;;
1446;SDS011;717;51.522;7.266;2022-10-31T08:57:17;18.17;;;12.68;;
1446;SDS011;717;51.522;7.266;2022-10-31T08:59:43;19.65;;;13.90;;
1446;SDS011;717;51.522;7.266;2022-10-31T09:02:10;22.10;;;13.48;;
1446;SDS011;717;51.522;7.266;2022-10-31T09:04:37;19.58;;;13.25;;
1446;SDS011;717;51.522;7.266;2022-10-31T09:07:04;17.83;;;13.75;;
1446;SDS011;717;51.522;7.266;2022-10-31T09:09:30;19.63;;;14.13;;
1446;SDS011;717;51.522;7.266;2022-10-31T09:11:58;17.88;;;13.07;;
1446;SDS011;717;51.522;7.266;2022-10-31T09:14:25;22.27;;;13.48;;
1446;SDS011;717;51.522;7.266;2022-10-31T09:16:52;20.20;;;12.90;;
1446;SDS011;717;51.522;7.266;2022-10-31T09:19:19;20.27;;;13.45;;
1446;SDS011;717;51.522;7.266;2022-10-31T09:21:45;18.23;;;13.02;;
1446;SDS011;717;51.522;7.266;2022-10-31T09:24:12;20.88;;;12.90;;
1446;SDS011;717;51.522;7.266;2022-10-31T09:26:39;17.15;;;12.50;;
1446;SDS011;717;51.522;7.266;2022-10-31T09:29:07;21.52;;;13.23;;
1446;SDS011;717;51.522;7.266;2022-10-31T09:31:34;20.27;;;13.18;;
1446;SDS011;717;51.522;7.266;2022-10-31T09:34:01;20.55;;;12.65;;
1446;SDS011;717;51.522;7.266;2022-10-31T09:36:28;18.80;;;13.43;;
1446;SDS011;717;51.522;7.266;2022-10-31T09:38:55;21.15;;;12.98;;
1446;SDS011;717;51.522;7.266;2022-10-31T09:41:23;22.50;;;14.40;;
1446;SDS011;717;51.522;7.266;2022-10-31T09:43:57;24.15;;;13.88;;
1446;SDS011;717;51.522;7.266;2022-10-31T09:46:33;23.67;;;13.45;;
1446;SDS011;717;51.522;7.266;2022-10-31T09:49:18;20.52;;;12.68;;
1446;SDS011;717;51.522;7.266;2022-10-31T09:52:01;18.48;;;12.68;;
1446;SDS011;717;51.522;7.266;2022-10-31T09:54:35;18.83;;;12.98;;
1446;SDS011;717;51.522;7.266;2022-10-31T09:57:07;17.27;;;13.38;;
1446;SDS011;717;51.522;7.266;2022-10-31T09:59:40;20.25;;;13.40;;
1446;SDS011;717;51.522;7.266;2022-10-31T10:02:12;19.25;;;13.80;;
1446;SDS011;717;51.522;7.266;2022-10-31T10:04:43;16.88;;;13.63;;
1446;SDS011;717;51.522;7.266;2022-10-31T10:07:16;21.60;;;13.85;;
1446;SDS011;717;51.522;7.266;2022-10-31T10:09:56;23.02;;;13.75;;
1446;SDS011;717;51.522;7.266;2022-10-31T10:12:27;23.55;;;13.10;;
1446;SDS011;717;51.522;7.266;2022-10-31T10:15:09;17.45;;;12.63;;
1446;SDS011;717;51.522;7.266;2022-10-31T10:18:03;17.05;;;11.90;;
1446;SDS011;717;51.522;7.266;2022-10-31T10:20:43;17.48;;;11.82;;
1446;SDS011;717;51.522;7.266;2022-10-31T10:23:27;19.40;;;12.32;;
1446;SDS011;717;51.522;7.266;2022-10-31T10:26:02;15.48;;;12.02;;
1446;SDS011;717;51.522;7.266;2022-10-31T10:28:37;20.13;;;12.63;;
1446;SDS011;717;51.522;7.266;2022-10-31T10:31:08;19.80;;;12.60;;
1446;SDS011;717;51.522;7.266;2022-10-31T10:33:40;17.45;;;12.30;;
1446;SDS011;717;51.522;7.266;2022-10-31T10:36:16;17.85;;;12.23;;
1446;SDS011;717;51.522;7.266;2022-10-31T10:38:50;18.25;;;12.68;;
1446;SDS011;717;51.522;7.266;2022-10-31T10:41:19;16.55;;;11.93;;
1446;SDS011;717;51.522;7.266;2022-10-31T10:43:48;17.42;;;12.65;;
1446;SDS011;717;51.522;7.266;2022-10-31T10:46:19;20.17;;;12.43;;
1446;SDS011;717;51.522;7.266;2022-10-31T10:49:19;21.35;;;12.20;;
1446;SDS011;717;51.522;7.266;2022-10-31T10:51:52;17.40;;;11.93;;
1446;SDS011;717;51.522;7.266;2022-10-31T10:57:28;18.33;;;11.82;;
1446;SDS011;717;51.522;7.266;2022-10-31T11:00:17;23.58;;;12.25;;
1446;SDS011;717;51.522;7.266;2022-10-31T11:02:45;17.77;;;11.52;;
1446;SDS011;717;51.522;7.266;2022-10-31T11:05:16;20.40;;;13.13;;
1446;SDS011;717;51.522;7.266;2022-10-31T11:07:49;19.90;;;12.60;;
1446;SDS011;717;51.522;7.266;2022-10-31T11:10:16;19.75;;;12.38;;
1446;SDS011;717;51.522;7.266;2022-10-31T11:12:45;18.50;;;12.52;;
1446;SDS011;717;51.522;7.266;2022-10-31T11:15:24;19.83;;;11.93;;
1446;SDS011;717;51.522;7.266;2022-10-31T11:17:54;20.35;;;12.68;;
1446;SDS011;717;51.522;7.266;2022-10-31T11:20:28;25.17;;;13.40;;
1446;SDS011;717;51.522;7.266;2022-10-31T11:23:00;22.67;;;14.05;;
1446;SDS011;717;51.522;7.266;2022-10-31T11:25:47;22.70;;;13.80;;
1446;SDS011;717;51.522;7.266;2022-10-31T11:28:15;23.25;;;13.27;;
1446;SDS011;717;51.522;7.266;2022-10-31T11:30:43;23.50;;;13.88;;
1446;SDS011;717;51.522;7.266;2022-10-31T11:33:13;21.02;;;13.50;;
1446;SDS011;717;51.522;7.266;2022-10-31T11:35:46;17.80;;;12.98;;
1446;SDS011;717;51.522;7.266;2022-10-31T11:38:15;18.23;;;12.77;;
1446;SDS011;717;51.522;7.266;2022-10-31T11:40:51;20.02;;;12.43;;
1446;SDS011;717;51.522;7.266;2022-10-31T11:43:23;17.20;;;11.82;;
1446;SDS011;717;51.522;7.266;2022-10-31T11:45:51;20.20;;;11.98;;
1446;SDS011;717;51.522;7.266;2022-10-31T11:48:18;15.82;;;11.25;;
1446;SDS011;717;51.522;7.266;2022-10-31T11:50:49;19.15;;;10.68;;
1446;SDS011;717;51.522;7.266;2022-10-31T11:53:19;17.30;;;9.50;;
1446;SDS011;717;51.522;7.266;2022-10-31T11:55:59;16.85;;;9.35;;
1446;SDS011;717;51.522;7.266;2022-10-31T11:58:30;14.25;;;9.85;;
1446;SDS011;717;51.522;7.266;2022-10-31T12:00:57;15.10;;;9.88;;
1446;SDS011;717;51.522;7.266;2022-10-31T12:03:29;14.48;;;9.50;;
1446;SDS011;717;51.522;7.266;2022-10-31T12:06:07;15.98;;;9.15;;
1446;SDS011;717;51.522;7.266;2022-10-31T12:08:38;12.95;;;8.10;;
1446;SDS011;717;51.522;7.266;2022-10-31T12:11:09;18.10;;;8.88;;
1446;SDS011;717;51.522;7.266;2022-10-31T12:13:45;10.73;;;8.45;;
1446;SDS011;717;51.522;7.266;2022-10-31T12:16:25;15.73;;;8.13;;
1446;SDS011;717;51.522;7.266;2022-10-31T12:18:58;15.20;;;8.60;;
1446;SDS011;717;51.522;7.266;2022-10-31T12:21:34;18.25;;;8.73;;
1446;SDS011;717;51.522;7.266;2022-10-31T12:24:22;13.10;;;8.20;;
1446;SDS011;717;51.522;7.266;2022-10-31T12:27:01;12.23;;;7.95;;
1446;SDS011;717;51.522;7.266;2022-10-31T12:29:39;14.57;;;7.82;;
1446;SDS011;717;51.522;7.266;2022-10-31T12:32:21;14.13;;;7.53;;
1446;SDS011;717;51.522;7.266;2022-10-31T12:38:03;11.20;;;7.70;;
1446;SDS011;717;51.522;7.266;2022-10-31T12:40:56;13.27;;;7.35;;
1446;SDS011;717;51.522;7.266;2022-10-31T12:43:37;11.13;;;7.40;;
1446;SDS011;717;51.522;7.266;2022-10-31T12:46:13;15.50;;;7.32;;
1446;SDS011;717;51.522;7.266;2022-10-31T12:49:00;13.32;;;7.13;;
1446;SDS011;717;51.522;7.266;2022-10-31T12:51:50;10.23;;;6.72;;
1446;SDS011;717;51.522;7.266;2022-10-31T12:54:32;10.70;;;6.93;;
1446;SDS011;717;51.522;7.266;2022-10-31T12:57:16;11.65;;;6.60;;
1446;SDS011;717;51.522;7.266;2022-10-31T12:59:49;10.30;;;6.75;;
1446;SDS011;717;51.522;7.266;2022-10-31T13:02:20;10.68;;;6.20;;
1446;SDS011;717;51.522;7.266;2022-10-31T13:04:51;10.10;;;6.30;;
1446;SDS011;717;51.522;7.266;2022-10-31T13:07:23;10.90;;;6.07;;
1446;SDS011;717;51.522;7.266;2022-10-31T13:09:57;11.52;;;5.72;;
1446;SDS011;717;51.522;7.266;2022-10-31T13:12:29;9.82;;;5.95;;
1446;SDS011;717;51.522;7.266;2022-10-31T13:14:58;9.65;;;5.55;;
1446;SDS011;717;51.522;7.266;2022-10-31T13:17:30;8.95;;;5.40;;
1446;SDS011;717;51.522;7.266;2022-10-31T13:20:05;10.15;;;5.88;;
1446;SDS011;717;51.522;7.266;2022-10-31T13:22:42;10.85;;;5.43;;
1446;SDS011;717;51.522;7.266;2022-10-31T13:25:15;10.80;;;6.35;;
1446;SDS011;717;51.522;7.266;2022-10-31T13:27:46;11.13;;;5.45;;
1446;SDS011;717;51.522;7.266;2022-10-31T13:30:16;8.35;;;5.65;;
1446;SDS011;717;51.522;7.266;2022-10-31T13:32:47;12.70;;;5.50;;
1446;SDS011;717;51.522;7.266;2022-10-31T13:35:18;7.97;;;5.40;;
1446;SDS011;717;51.522;7.266;2022-10-31T13:37:50;12.38;;;6.15;;
1446;SDS011;717;51.522;7.266;2022-10-31T13:40:32;11.77;;;5.78;;
1446;SDS011;717;51.522;7.266;2022-10-31T13:43:05;11.35;;;5.82;;
1446;SDS011;717;51.522;7.266;2022-10-31T13:45:46;11.55;;;5.88;;
1446;SDS011;717;51.522;7.266;2022-10-31T13:48:19;15.20;;;5.38;;
1446;SDS011;717;51.522;7.266;2022-10-31T13:51:00;9.77;;;5.60;;
1446;SDS011;717;51.522;7.266;2022-10-31T13:53:35;11.57;;;5.40;;
1446;SDS011;717;51.522;7.266;2022-10-31T13:56:14;14.13;;;5.88;;
1446;SDS011;717;51.522;7.266;2022-10-31T13:58:55;13.27;;;5.78;;
1446;SDS011;717;51.522;7.266;2022-10-31T14:01:24;10.43;;;5.70;;
1446;SDS011;717;51.522;7.266;2022-10-31T14:03:58;11.00;;;5.20;;
1446;SDS011;717;51.522;7.266;2022-10-31T14:06:34;10.73;;;5.72;;
1446;SDS011;717;51.522;7.266;2022-10-31T14:09:04;8.43;;;5.35;;
1446;SDS011;717;51.522;7.266;2022-10-31T14:11:32;10.23;;;5.57;;
1446;SDS011;717;51.522;7.266;2022-10-31T14:14:02;10.27;;;6.03;;
1446;SDS011;717;51.522;7.266;2022-10-31T14:16:29;10.25;;;5.65;;
1446;SDS011;717;51.522;7.266;2022-10-31T14:18:59;11.23;;;6.43;;
1446;SDS011;717;51.522;7.266;2022-10-31T14:21:29;9.75;;;5.72;;
1446;SDS011;717;51.522;7.266;2022-10-31T14:24:02;10.63;;;5.90;;
1446;SDS011;717;51.522;7.266;2022-10-31T14:26:50;12.27;;;6.72;;
1446;SDS011;717;51.522;7.266;2022-10-31T14:29:22;13.25;;;6.15;;
1446;SDS011;717;51.522;7.266;2022-10-31T14:31:52;11.18;;;6.80;;
1446;SDS011;717;51.522;7.266;2022-10-31T14:34:22;12.95;;;6.65;;
1446;SDS011;717;51.522;7.266;2022-10-31T14:36:56;13.93;;;6.95;;
1446;SDS011;717;51.522;7.266;2022-10-31T14:39:44;11.85;;;7.35;;
1446;SDS011;717;51.522;7.266;2022-10-31T14:42:25;13.07;;;7.63;;
1446;SDS011;717;51.522;7.266;2022-10-31T14:45:10;14.55;;;7.85;;
1446;SDS011;717;51.522;7.266;2022-10-31T14:47:52;15.13;;;7.50;;
1446;SDS011;717;51.522;7.266;2022-10-31T14:50:35;12.00;;;7.72;;
1446;SDS011;717;51.522;7.266;2022-10-31T14:53:12;13.43;;;8.05;;
1446;SDS011;717;51.522;7.266;2022-10-31T14:55:46;13.27;;;8.02;;
1446;SDS011;717;51.522;7.266;2022-10-31T14:58:17;12.25;;;7.53;;
1446;SDS011;717;51.522;7.266;2022-10-31T15:00:46;13.13;;;7.50;;
1446;SDS011;717;51.522;7.266;2022-10-31T15:03:14;13.90;;;7.05;;
1446;SDS011;717;51.522;7.266;2022-10-31T15:05:45;14.30;;;6.85;;
1446;SDS011;717;51.522;7.266;2022-10-31T15:08:26;12.07;;;7.20;;
1446;SDS011;717;51.522;7.266;2022-10-31T15:10:57;12.85;;;7.20;;
1446;SDS011;717;51.522;7.266;2022-10-31T15:13:25;10.52;;;6.75;;
1446;SDS011;717;51.522;7.266;2022-10-31T15:15:52;9.80;;;5.95;;
1446;SDS011;717;51.522;7.266;2022-10-31T15:18:21;10.45;;;6.55;;
1446;SDS011;717;51.522;7.266;2022-10-31T15:20:50;14.40;;;6.45;;
1446;SDS011;717;51.522;7.266;2022-10-31T15:23:20;12.43;;;7.43;;
1446;SDS011;717;51.522;7.266;2022-10-31T15:25:49;9.32;;;6.28;;
1446;SDS011;717;51.522;7.266;2022-10-31T15:28:21;9.80;;;6.05;;
1446;SDS011;717;51.522;7.266;2022-10-31T15:30:50;11.02;;;6.18;;
1446;SDS011;717;51.522;7.266;2022-10-31T15:33:22;8.57;;;5.80;;
1446;SDS011;717;51.522;7.266;2022-10-31T15:35:57;10.57;;;5.63;;
1446;SDS011;717;51.522;7.266;2022-10-31T15:38:25;11.10;;;6.07;;
1446;SDS011;717;51.522;7.266;2022-10-31T15:40:53;8.27;;;5.57;;
1446;SDS011;717;51.522;7.266;2022-10-31T15:43:21;10.52;;;6.20;;
1446;SDS011;717;51.522;7.266;2022-10-31T15:45:48;9.18;;;6.20;;
1446;SDS011;717;51.522;7.266;2022-10-31T15:48:17;10.73;;;5.90;;
1446;SDS011;717;51.522;7.266;2022-10-31T15:50:49;9.15;;;5.72;;
1446;SDS011;717;51.522;7.266;2022-10-31T15:53:18;8.50;;;5.97;;
1446;SDS011;717;51.522;7.266;2022-10-31T15:55:48;9.80;;;5.50;;
1446;SDS011;717;51.522;7.266;2022-10-31T15:58:16;13.60;;;6.70;;
1446;SDS011;717;51.522;7.266;2022-10-31T16:00:44;12.65;;;6.75;;
1446;SDS011;717;51.522;7.266;2022-10-31T16:03:25;14.02;;;6.43;;
1446;SDS011;717;51.522;7.266;2022-10-31T16:05:53;12.55;;;7.22;;
1446;SDS011;717;51.522;7.266;2022-10-31T16:08:22;12.35;;;7.68;;
1446;SDS011;717;51.522;7.266;2022-10-31T16:10:51;13.73;;;6.68;;
1446;SDS011;717;51.522;7.266;2022-10-31T16:13:18;10.50;;;5.55;;
1446;SDS011;717;51.522;7.266;2022-10-31T16:15:50;11.10;;;6.07;;
1446;SDS011;717;51.522;7.266;2022-10-31T16:18:20;12.98;;;6.40;;
1446;SDS011;717;51.522;7.266;2022-10-31T16:20:49;11.48;;;5.53;;
1446;SDS011;717;51.522;7.266;2022-10-31T16:23:19;11.82;;;5.40;;
1446;SDS011;717;51.522;7.266;2022-10-31T16:25:48;9.30;;;4.88;;
1446;SDS011;717;51.522;7.266;2022-10-31T16:28:17;8.60;;;5.72;;
1446;SDS011;717;51.522;7.266;2022-10-31T16:30:47;8.90;;;5.55;;
1446;SDS011;717;51.522;7.266;2022-10-31T16:33:21;10.80;;;5.80;;
1446;SDS011;717;51.522;7.266;2022-10-31T16:35:54;8.60;;;4.75;;
1446;SDS011;717;51.522;7.266;2022-10-31T16:38:21;9.18;;;5.47;;
1446;SDS011;717;51.522;7.266;2022-10-31T16:40:48;9.38;;;5.40;;
1446;SDS011;717;51.522;7.266;2022-10-31T16:43:16;11.63;;;5.25;;
1446;SDS011;717;51.522;7.266;2022-10-31T16:45:45;10.13;;;5.38;;
1446;SDS011;717;51.522;7.266;2022-10-31T16:48:13;10.68;;;5.63;;
1446;SDS011;717;51.522;7.266;2022-10-31T16:50:41;8.00;;;5.38;;
1446;SDS011;717;51.522;7.266;2022-10-31T16:53:13;11.90;;;5.53;;
1446;SDS011;717;51.522;7.266;2022-10-31T16:55:41;10.13;;;5.47;;
1446;SDS011;717;51.522;7.266;2022-10-31T16:58:13;8.85;;;5.35;;
1446;SDS011;717;51.522;7.266;2022-10-31T17:00:43;9.73;;;6.03;;
1446;SDS011;717;51.522;7.266;2022-10-31T17:03:10;12.30;;;5.95;;
1446;SDS011;717;51.522;7.266;2022-10-31T17:05:37;10.93;;;6.50;;
1446;SDS011;717;51.522;7.266;2022-10-31T17:08:04;11.48;;;6.38;;
1446;SDS011;717;51.522;7.266;2022-10-31T17:10:32;8.48;;;5.63;;
1446;SDS011;717;51.522;7.266;2022-10-31T17:12:59;10.38;;;5.60;;
1446;SDS011;717;51.522;7.266;2022-10-31T17:15:28;7.43;;;5.63;;
1446;SDS011;717;51.522;7.266;2022-10-31T17:17:59;6.30;;;5.03;;
1446;SDS011;717;51.522;7.266;2022-10-31T17:20:26;8.32;;;5.05;;
1446;SDS011;717;51.522;7.266;2022-10-31T17:22:54;8.23;;;5.15;;
1446;SDS011;717;51.522;7.266;2022-10-31T17:25:23;9.82;;;4.90;;